Terminal Aerodrome Forecast
Issued by NWS

Home | Current Version | Previous Version | Graphics & Text | Print | Product List | Glossary On
Versions: 1 2 3 4 5 6 7 8 9 10 11 12 13 14 15 16 17 18 19 20 21 22 23 24 25 26 27 28
926
FTUS43 KLOT 210853 AAA
TAFMDW
TAF AMD
KMDW 210853Z 2109/2206 04004KT P6SM FEW120 FEW250
     FM211500 06005KT P6SM SCT250
     FM212000 11008KT P6SM SCT100 BKN200
     FM220100 16006KT P6SM BKN100 PROB30 2202/2206 6SM -SHRA BKN080=

USA.gov is the U.S. government's official web portal to all federal, state and local government web resources and services.